createdAt,value
2022-10-09T00:00:43.327Z,5.70
2022-10-09T00:03:31.961Z,5.72
2022-10-09T00:06:22.601Z,5.78
2022-10-09T00:09:12.951Z,5.80
2022-10-09T00:12:01.550Z,5.40
2022-10-09T00:14:50.303Z,5.55
2022-10-09T00:17:38.905Z,5.43
2022-10-09T00:20:27.502Z,5.38
2022-10-09T00:23:17.530Z,5.00
2022-10-09T00:26:08.022Z,5.18
2022-10-09T00:28:57.152Z,5.65
2022-10-09T00:31:45.771Z,4.93
2022-10-09T00:34:34.435Z,4.85
2022-10-09T00:37:23.085Z,4.90
2022-10-09T00:40:11.908Z,4.45
2022-10-09T00:43:02.323Z,4.93
2022-10-09T00:45:54.785Z,4.50
2022-10-09T00:48:43.636Z,4.50
2022-10-09T00:51:33.364Z,4.80
2022-10-09T00:54:25.307Z,5.28
2022-10-09T00:57:14.226Z,4.90
2022-10-09T01:00:08.928Z,4.60
2022-10-09T01:02:57.600Z,5.45
2022-10-09T01:05:53.906Z,4.97
2022-10-09T01:08:49.578Z,4.93
2022-10-09T01:11:46.747Z,5.15
2022-10-09T01:14:40.366Z,5.32
2022-10-09T01:17:37.806Z,4.63
2022-10-09T01:20:42.666Z,5.43
2022-10-09T01:23:47.230Z,5.85
2022-10-09T01:27:13.738Z,5.78
2022-10-09T01:30:05.957Z,5.68
2022-10-09T01:32:55.996Z,5.40
2022-10-09T01:35:47.920Z,5.63
2022-10-09T01:38:37.205Z,6.10
2022-10-09T01:41:26.404Z,5.78
2022-10-09T01:44:21.863Z,6.15
2022-10-09T01:47:15.636Z,5.32
2022-10-09T01:50:13.586Z,6.40
2022-10-09T01:53:05.056Z,6.30
2022-10-09T01:55:59.993Z,5.85
2022-10-09T01:58:53.459Z,5.70
2022-10-09T02:01:45.765Z,5.72
2022-10-09T02:04:36.594Z,6.47
2022-10-09T02:07:26.560Z,5.32
2022-10-09T02:10:18.751Z,5.32
2022-10-09T02:13:07.496Z,5.53
2022-10-09T02:16:01.722Z,5.40
2022-10-09T02:19:07.488Z,5.43
2022-10-09T02:22:00.748Z,5.18
2022-10-09T02:24:49.487Z,5.55
2022-10-09T02:27:38.175Z,5.35
2022-10-09T02:30:31.450Z,5.63
2022-10-09T02:33:20.066Z,5.60
2022-10-09T02:36:10.410Z,5.78
2022-10-09T02:38:59.687Z,6.00
2022-10-09T02:41:48.330Z,5.28
2022-10-09T02:44:37.107Z,6.70
2022-10-09T02:47:25.667Z,6.25
2022-10-09T02:50:14.349Z,6.45
2022-10-09T02:53:04.292Z,5.72
2022-10-09T02:55:52.851Z,6.22
2022-10-09T02:58:41.560Z,7.07
2022-10-09T03:01:30.520Z,6.75
2022-10-09T03:04:19.398Z,7.18
2022-10-09T03:07:07.975Z,7.40
2022-10-09T03:09:58.465Z,7.40
2022-10-09T03:12:47.650Z,6.80
2022-10-09T03:15:37.305Z,7.13
2022-10-09T03:18:25.882Z,7.75
2022-10-09T03:21:16.185Z,7.35
2022-10-09T03:24:04.961Z,8.10
2022-10-09T03:26:55.023Z,8.20
2022-10-09T03:29:43.655Z,7.68
2022-10-09T03:32:32.291Z,8.02
2022-10-09T03:35:20.986Z,8.25
2022-10-09T03:38:10.226Z,7.65
2022-10-09T03:41:00.318Z,8.23
2022-10-09T03:43:50.372Z,8.00
2022-10-09T03:46:39.110Z,7.88
2022-10-09T03:49:27.692Z,6.90
2022-10-09T03:52:16.272Z,6.90
2022-10-09T03:55:05.737Z,7.32
2022-10-09T03:57:54.392Z,6.85
2022-10-09T04:00:45.405Z,7.22
2022-10-09T04:03:34.148Z,7.50
2022-10-09T04:06:22.770Z,7.53
2022-10-09T04:09:11.380Z,6.80
2022-10-09T04:11:59.968Z,7.05
2022-10-09T04:14:48.951Z,6.95
2022-10-09T04:17:38.986Z,7.00
2022-10-09T04:20:27.598Z,6.90
2022-10-09T04:23:16.276Z,7.20
2022-10-09T04:26:04.932Z,7.38
2022-10-09T04:28:53.498Z,7.47
2022-10-09T04:31:42.187Z,7.40
2022-10-09T04:34:32.462Z,8.10
2022-10-09T04:37:21.582Z,8.23
2022-10-09T04:40:10.738Z,9.05
2022-10-09T04:42:59.311Z,8.38
2022-10-09T04:45:48.015Z,8.45
2022-10-09T04:48:39.695Z,9.90
2022-10-09T04:51:29.684Z,8.27
2022-10-09T04:54:18.250Z,8.20
2022-10-09T04:57:06.829Z,8.25
2022-10-09T04:59:55.454Z,8.70
2022-10-09T05:02:44.121Z,9.05
2022-10-09T05:05:33.424Z,9.23
2022-10-09T05:08:23.460Z,9.63
2022-10-09T05:11:14.158Z,9.88
2022-10-09T05:14:02.767Z,10.10
2022-10-09T05:17:12.388Z,10.20
2022-10-09T05:20:01.491Z,10.32
2022-10-09T05:22:50.515Z,10.57
2022-10-09T05:25:40.792Z,10.13
2022-10-09T05:28:30.221Z,10.32
2022-10-09T05:31:20.835Z,10.70
2022-10-09T05:34:09.493Z,10.30
2022-10-09T05:36:58.076Z,10.15
2022-10-09T05:39:46.772Z,10.73
2022-10-09T05:42:36.762Z,11.40
2022-10-09T05:45:25.419Z,10.45
2022-10-09T05:48:14.066Z,10.70
2022-10-09T05:51:10.990Z,10.10
2022-10-09T05:54:02.064Z,11.13
2022-10-09T05:56:50.758Z,10.40
2022-10-09T05:59:40.724Z,10.32
2022-10-09T06:02:29.393Z,10.35
2022-10-09T06:05:18.284Z,10.18
2022-10-09T06:08:06.882Z,9.73
2022-10-09T06:10:55.455Z,10.75
2022-10-09T06:13:44.941Z,11.30
2022-10-09T06:16:36.814Z,9.82
2022-10-09T06:19:25.448Z,11.40
2022-10-09T06:22:14.154Z,10.88
2022-10-09T06:25:02.767Z,10.32
2022-10-09T06:27:51.390Z,11.65
2022-10-09T06:30:40.071Z,11.20
2022-10-09T06:33:33.034Z,11.38
2022-10-09T06:36:23.401Z,10.38
2022-10-09T06:39:12.274Z,11.57
2022-10-09T06:42:00.894Z,11.73
2022-10-09T06:45:01.040Z,10.88
2022-10-09T06:47:49.624Z,11.25
2022-10-09T06:50:39.732Z,11.30
2022-10-09T06:53:28.380Z,10.00
2022-10-09T06:56:18.098Z,11.02
2022-10-09T06:59:08.659Z,9.90
2022-10-09T07:01:57.954Z,10.05
2022-10-09T07:04:49.463Z,9.57
2022-10-09T07:07:42.360Z,8.65
2022-10-09T07:10:31.096Z,8.50
2022-10-09T07:13:19.746Z,8.25
2022-10-09T07:16:08.461Z,8.93
2022-10-09T07:18:58.080Z,8.20
2022-10-09T07:21:48.552Z,7.72
2022-10-09T07:24:38.839Z,7.50
2022-10-09T07:27:27.752Z,7.32
2022-10-09T07:30:16.490Z,7.35
2022-10-09T07:33:05.188Z,6.97
2022-10-09T07:35:57.300Z,6.68
2022-10-09T07:38:46.245Z,6.78
2022-10-09T07:41:36.799Z,7.00
2022-10-09T07:44:25.523Z,6.80
2022-10-09T07:47:14.162Z,7.18
2022-10-09T07:50:02.930Z,7.03
2022-10-09T07:52:51.933Z,7.45
2022-10-09T07:55:47.158Z,7.60
2022-10-09T07:58:37.161Z,8.57
2022-10-09T08:01:27.997Z,8.98
2022-10-09T08:04:16.793Z,8.77
2022-10-09T08:07:05.549Z,9.65
2022-10-09T08:09:54.212Z,10.32
2022-10-09T08:12:42.836Z,10.70
2022-10-09T08:15:34.151Z,9.85
2022-10-09T08:18:22.816Z,10.32
2022-10-09T08:21:14.617Z,10.70
2022-10-09T08:24:03.265Z,10.25
2022-10-09T08:26:52.032Z,10.32
2022-10-09T08:29:40.671Z,9.75
2022-10-09T08:32:30.609Z,10.30
2022-10-09T08:35:19.379Z,10.77
2022-10-09T08:38:08.019Z,10.00
2022-10-09T08:41:03.373Z,10.90
2022-10-09T08:43:58.314Z,11.68
2022-10-09T08:47:00.898Z,10.70
2022-10-09T08:49:55.671Z,11.60
2022-10-09T08:52:51.278Z,11.27
2022-10-09T08:55:46.785Z,11.05
2022-10-09T08:58:39.283Z,11.23
2022-10-09T09:01:37.070Z,10.73
2022-10-09T09:04:45.249Z,10.13
2022-10-09T09:07:42.602Z,9.85
2022-10-09T09:10:39.570Z,9.55
2022-10-09T09:13:46.955Z,9.13
2022-10-09T09:16:44.904Z,9.07
2022-10-09T09:19:44.502Z,10.02
2022-10-09T09:22:35.647Z,8.88
2022-10-09T09:25:26.194Z,8.68
2022-10-09T09:28:20.572Z,8.25
2022-10-09T09:31:17.493Z,7.85
2022-10-09T09:34:11.602Z,7.90
2022-10-09T09:37:00.200Z,7.63
2022-10-09T09:43:04.800Z,9.38
2022-10-09T09:45:55.036Z,7.43
2022-10-09T09:48:47.413Z,7.20
2022-10-09T09:51:37.698Z,6.82
2022-10-09T09:54:28.665Z,6.50
2022-10-09T09:57:32.124Z,4.32
2022-10-09T10:00:23.075Z,4.40
2022-10-09T10:03:14.727Z,5.10
2022-10-09T10:06:03.459Z,5.50
2022-10-09T10:09:06.715Z,5.50
2022-10-09T10:11:58.563Z,5.68
2022-10-09T10:14:52.320Z,6.60
2022-10-09T10:17:40.883Z,6.32
2022-10-09T10:20:32.127Z,6.53
2022-10-09T10:23:31.338Z,6.28
2022-10-09T10:26:34.627Z,7.22
2022-10-09T10:29:28.849Z,7.25
2022-10-09T10:32:22.820Z,7.63
2022-10-09T10:35:14.826Z,7.78
2022-10-09T10:38:06.918Z,8.13
2022-10-09T10:41:04.301Z,8.68
2022-10-09T10:43:58.806Z,9.02
2022-10-09T10:46:54.222Z,8.50
2022-10-09T10:49:44.171Z,7.78
2022-10-09T10:52:45.962Z,8.00
2022-10-09T10:55:45.535Z,8.80
2022-10-09T10:58:47.602Z,7.95
2022-10-09T11:01:42.882Z,8.57
2022-10-09T11:04:43.214Z,7.32
2022-10-09T11:07:43.371Z,7.22
2022-10-09T11:10:39.852Z,6.45
2022-10-09T11:13:33.463Z,6.85
2022-10-09T11:16:34.903Z,5.68
2022-10-09T11:19:46.798Z,5.25
2022-10-09T11:22:52.727Z,6.53
2022-10-09T11:25:47.051Z,7.00
2022-10-09T11:28:44.033Z,7.82
2022-10-09T11:31:38.531Z,8.30
2022-10-09T11:34:31.875Z,8.20
2022-10-09T11:37:24.812Z,7.78
2022-10-09T11:40:20.140Z,8.27
2022-10-09T11:43:16.806Z,7.35
2022-10-09T11:46:11.475Z,7.00
2022-10-09T11:49:10.935Z,7.05
2022-10-09T11:52:04.902Z,6.72
2022-10-09T11:54:53.495Z,6.93
2022-10-09T11:57:43.463Z,6.13
2022-10-09T12:00:33.766Z,5.38
2022-10-09T12:03:33.531Z,5.65
2022-10-09T12:06:22.679Z,5.50
2022-10-09T12:09:11.495Z,4.97
2022-10-09T12:12:07.235Z,5.22
2022-10-09T12:14:57.347Z,5.53
2022-10-09T12:17:50.112Z,5.20
2022-10-09T12:20:39.386Z,4.60
2022-10-09T12:23:33.159Z,4.20
2022-10-09T12:26:25.318Z,4.15
2022-10-09T12:29:22.795Z,4.32
2022-10-09T12:32:18.445Z,4.53
2022-10-09T12:35:21.571Z,3.42
2022-10-09T12:38:18.006Z,3.97
2022-10-09T12:41:09.635Z,4.00
2022-10-09T12:43:59.644Z,3.80
2022-10-09T12:46:48.463Z,3.60
2022-10-09T12:49:38.502Z,3.85
2022-10-09T12:52:27.669Z,4.10
2022-10-09T12:55:24.362Z,3.90
2022-10-09T12:58:19.705Z,3.60
2022-10-09T13:01:13.432Z,3.60
2022-10-09T13:04:04.583Z,4.10
2022-10-09T13:06:56.820Z,4.22
2022-10-09T13:09:45.683Z,4.22
2022-10-09T13:12:35.107Z,4.55
2022-10-09T13:15:33.441Z,4.13
2022-10-09T13:18:23.313Z,4.18
2022-10-09T13:21:24.874Z,4.60
2022-10-09T13:24:14.853Z,4.30
2022-10-09T13:27:05.279Z,4.28
2022-10-09T13:29:54.006Z,4.07
2022-10-09T13:32:42.612Z,3.95
2022-10-09T13:35:31.158Z,4.30
2022-10-09T13:38:20.515Z,4.38
2022-10-09T13:41:14.473Z,3.85
2022-10-09T13:44:03.121Z,4.47
2022-10-09T13:46:51.962Z,4.57
2022-10-09T13:49:40.455Z,4.60
2022-10-09T13:52:29.248Z,4.47
2022-10-09T13:55:18.144Z,5.20
2022-10-09T13:58:08.043Z,4.47
2022-10-09T14:00:58.226Z,5.25
2022-10-09T14:03:46.945Z,5.20
2022-10-09T14:06:36.926Z,5.07
2022-10-09T14:09:25.995Z,5.28
2022-10-09T14:12:14.537Z,5.35
2022-10-09T14:15:04.863Z,5.22
2022-10-09T14:17:53.635Z,5.40
2022-10-09T14:20:42.295Z,4.97
2022-10-09T14:23:31.062Z,4.45
2022-10-09T14:26:19.658Z,5.00
2022-10-09T14:29:08.588Z,5.30
2022-10-09T14:31:58.545Z,5.03
2022-10-09T14:34:47.243Z,5.30
2022-10-09T14:37:41.672Z,5.00
2022-10-09T14:40:30.889Z,4.82
2022-10-09T14:43:20.164Z,5.22
2022-10-09T14:46:12.225Z,4.85
2022-10-09T14:49:07.467Z,4.70
2022-10-09T14:51:57.347Z,5.30
2022-10-09T14:54:45.873Z,5.18
2022-10-09T14:57:35.619Z,5.38
2022-10-09T15:00:24.464Z,5.03
2022-10-09T15:03:13.194Z,5.30
2022-10-09T15:06:07.957Z,5.55
2022-10-09T15:09:03.125Z,5.45
2022-10-09T15:11:54.092Z,4.88
2022-10-09T15:14:42.610Z,4.53
2022-10-09T15:17:31.511Z,4.35
2022-10-09T15:20:20.108Z,4.95
2022-10-09T15:23:10.052Z,4.65
2022-10-09T15:26:00.815Z,4.95
2022-10-09T15:28:49.423Z,5.28
2022-10-09T15:31:40.058Z,4.72
2022-10-09T15:34:29.278Z,5.18
2022-10-09T15:37:18.479Z,5.22
2022-10-09T15:40:10.468Z,5.60
2022-10-09T15:42:59.021Z,5.50
2022-10-09T15:45:49.460Z,5.90
2022-10-09T15:48:38.123Z,5.93
2022-10-09T15:51:28.262Z,6.50
2022-10-09T15:54:16.890Z,6.07
2022-10-09T15:57:07.029Z,6.80
2022-10-09T15:59:55.621Z,6.50
2022-10-09T16:02:44.253Z,7.00
2022-10-09T16:05:37.685Z,6.70
2022-10-09T16:08:26.616Z,6.53
2022-10-09T16:11:17.985Z,6.47
2022-10-09T16:14:10.360Z,7.22
2022-10-09T16:16:59.696Z,6.25
2022-10-09T16:19:48.318Z,7.35
2022-10-09T16:22:36.937Z,7.28
2022-10-09T16:25:25.577Z,6.88
2022-10-09T16:28:14.299Z,7.53
2022-10-09T16:31:04.809Z,8.30
2022-10-09T16:33:53.980Z,8.15
2022-10-09T16:36:42.593Z,7.70
2022-10-09T16:39:31.164Z,8.10
2022-10-09T16:42:19.908Z,7.57
2022-10-09T16:45:10.268Z,7.72
2022-10-09T16:48:02.112Z,8.32
2022-10-09T16:50:50.826Z,8.50
2022-10-09T16:53:39.752Z,8.70
2022-10-09T16:56:30.992Z,9.43
2022-10-09T16:59:19.712Z,8.27
2022-10-09T17:02:08.814Z,8.68
2022-10-09T17:04:59.028Z,9.27
2022-10-09T17:07:47.918Z,9.18
2022-10-09T17:10:42.134Z,9.52
2022-10-09T17:13:30.831Z,9.85
2022-10-09T17:16:22.594Z,9.82
2022-10-09T17:19:11.296Z,9.98
2022-10-09T17:22:03.273Z,10.35
2022-10-09T17:24:52.066Z,9.48
2022-10-09T17:27:40.726Z,10.50
2022-10-09T17:30:29.379Z,10.32
2022-10-09T17:33:19.877Z,9.43
2022-10-09T17:36:09.364Z,10.02
2022-10-09T17:38:59.333Z,9.57
2022-10-09T17:41:50.594Z,9.88
2022-10-09T17:44:39.307Z,9.23
2022-10-09T17:47:28.399Z,10.13
2022-10-09T17:50:17.180Z,9.93
2022-10-09T17:53:05.942Z,9.35
2022-10-09T17:55:57.801Z,10.20
2022-10-09T17:58:47.613Z,9.82
2022-10-09T18:01:36.381Z,10.38
2022-10-09T18:04:25.173Z,9.90
2022-10-09T18:07:15.181Z,10.52
2022-10-09T18:10:05.146Z,10.55
2022-10-09T18:12:56.235Z,10.27
2022-10-09T18:15:45.651Z,10.52
2022-10-09T18:18:34.552Z,10.45
2022-10-09T18:21:23.251Z,10.88
2022-10-09T18:24:12.959Z,11.05
2022-10-09T18:27:01.689Z,12.00
2022-10-09T18:29:51.689Z,11.13
2022-10-09T18:32:40.641Z,12.07
2022-10-09T18:35:30.380Z,11.68
2022-10-09T18:38:19.065Z,13.02
2022-10-09T18:41:09.520Z,12.88
2022-10-09T18:44:00.359Z,13.15
2022-10-09T18:46:54.947Z,13.40
2022-10-09T18:49:46.501Z,14.07
2022-10-09T18:52:35.729Z,14.70
2022-10-09T18:55:24.505Z,14.07
2022-10-09T18:58:14.635Z,13.93
2022-10-09T19:01:07.215Z,14.63
2022-10-09T19:03:57.521Z,14.95
2022-10-09T19:06:46.220Z,14.60
2022-10-09T19:09:36.189Z,14.93
2022-10-09T19:12:24.861Z,14.15
2022-10-09T19:15:13.476Z,16.00
2022-10-09T19:18:03.193Z,14.07
2022-10-09T19:20:53.801Z,15.57
2022-10-09T19:23:43.950Z,14.80
2022-10-09T19:26:33.209Z,15.27
2022-10-09T19:29:22.007Z,14.68
2022-10-09T19:32:11.388Z,14.40
2022-10-09T19:35:00.110Z,15.38
2022-10-09T19:37:50.351Z,14.70
2022-10-09T19:40:39.297Z,15.73
2022-10-09T19:43:28.171Z,15.98
2022-10-09T19:46:20.023Z,15.05
2022-10-09T19:49:09.520Z,15.32
2022-10-09T19:51:58.694Z,15.85
2022-10-09T19:54:48.773Z,16.33
2022-10-09T19:57:37.631Z,16.00
2022-10-09T20:00:26.198Z,17.38
2022-10-09T20:03:15.331Z,17.30
2022-10-09T20:06:04.574Z,16.45
2022-10-09T20:08:53.736Z,17.40
2022-10-09T20:11:43.752Z,17.42
2022-10-09T20:14:32.413Z,18.08
2022-10-09T20:17:21.233Z,17.42
2022-10-09T20:20:10.571Z,17.15
2022-10-09T20:22:59.472Z,18.35
2022-10-09T20:25:48.393Z,17.83
2022-10-09T20:28:39.592Z,17.90
2022-10-09T20:31:28.784Z,17.95
2022-10-09T20:34:17.815Z,17.65
2022-10-09T20:37:06.669Z,17.45
2022-10-09T20:39:55.544Z,17.05
2022-10-09T20:42:44.142Z,17.33
2022-10-09T20:45:39.907Z,17.77
2022-10-09T20:48:28.551Z,17.13
2022-10-09T20:51:17.323Z,17.25
2022-10-09T20:54:07.221Z,17.95
2022-10-09T20:56:55.838Z,17.75
2022-10-09T20:59:45.000Z,18.35
2022-10-09T21:02:35.471Z,18.08
2022-10-09T21:05:24.001Z,19.15
2022-10-09T21:08:12.576Z,19.85
2022-10-09T21:11:01.326Z,18.63
2022-10-09T21:13:51.453Z,18.45
2022-10-09T21:16:40.004Z,18.77
2022-10-09T21:19:30.121Z,18.77
2022-10-09T21:22:19.028Z,18.10
2022-10-09T21:25:08.759Z,17.90
2022-10-09T21:27:57.290Z,19.45
2022-10-09T21:30:45.928Z,18.52
2022-10-09T21:33:34.730Z,19.20
2022-10-09T21:36:33.809Z,19.20
2022-10-09T21:39:22.853Z,19.30
2022-10-09T21:42:11.411Z,18.52
2022-10-09T21:45:00.002Z,18.25
2022-10-09T21:47:48.624Z,19.27
2022-10-09T21:50:38.351Z,18.08
2022-10-09T21:53:28.304Z,17.73
2022-10-09T21:56:17.571Z,18.85
2022-10-09T21:59:06.109Z,19.48
2022-10-09T22:01:54.736Z,19.02
2022-10-09T22:04:43.313Z,18.10
2022-10-09T22:07:33.111Z,19.52
2022-10-09T22:10:23.676Z,19.33
2022-10-09T22:13:12.328Z,19.02
2022-10-09T22:16:00.936Z,18.20
2022-10-09T22:18:49.467Z,18.27
2022-10-09T22:21:38.094Z,23.90
2022-10-09T22:24:29.241Z,18.65
2022-10-09T22:27:19.811Z,17.75
2022-10-09T22:30:09.742Z,18.70
2022-10-09T22:32:58.462Z,18.02
2022-10-09T22:35:46.942Z,17.13
2022-10-09T22:38:36.071Z,18.67
2022-10-09T22:41:25.903Z,18.38
2022-10-09T22:44:15.785Z,17.42
2022-10-09T22:47:04.302Z,19.42
2022-10-09T22:49:52.892Z,16.67
2022-10-09T22:52:41.401Z,17.85
2022-10-09T22:55:29.963Z,17.65
2022-10-09T22:58:18.573Z,16.92
2022-10-09T23:01:11.306Z,19.25
2022-10-09T23:04:00.718Z,19.33
2022-10-09T23:06:52.804Z,18.23
2022-10-09T23:09:41.376Z,18.40
2022-10-09T23:12:30.004Z,18.33
2022-10-09T23:15:18.625Z,18.95
2022-10-09T23:18:09.032Z,17.30
2022-10-09T23:20:57.799Z,17.40
2022-10-09T23:23:47.626Z,17.95
2022-10-09T23:26:37.215Z,17.70
2022-10-09T23:29:25.766Z,17.75
2022-10-09T23:32:14.377Z,18.50
2022-10-09T23:35:04.389Z,17.75
2022-10-09T23:37:54.212Z,17.63
2022-10-09T23:40:42.825Z,17.25
2022-10-09T23:43:33.109Z,17.00
2022-10-09T23:46:24.208Z,17.55
2022-10-09T23:49:12.726Z,17.15
2022-10-09T23:52:02.686Z,17.10
2022-10-09T23:54:51.243Z,17.83
2022-10-09T23:57:39.873Z,17.33
